Time;durP1;ratioP1;P1;durP2;ratioP2;P2;SDS_P1;SDS_P2;PMS_P1;PMS_P2;Temp;Humidity;BMP_temperature;BMP_pressure;BME280_temperature;BME280_humidity;BME280_pressure;Samples;Min_cycle;Max_cycle;Signal;HPM_P1;HPM_P2
2023/02/27 00:00:52;;;;;;;1.87;1.30;;;-0.90;99.90;;;;;;5072772;28;20224;-58
2023/02/27 00:03:18;;;;;;;1.40;1.10;;;-1.00;99.90;;;;;;5072997;28;20205;-58
2023/02/27 00:05:45;;;;;;;1.47;1.00;;;-1.00;99.90;;;;;;5072827;28;20232;-57
2023/02/27 00:08:13;;;;;;;1.83;1.20;;;-1.00;99.90;;;;;;5072382;28;20208;-58
2023/02/27 00:10:40;;;;;;;1.87;1.27;;;-0.90;99.90;;;;;;5073463;28;20580;-58
2023/02/27 00:13:07;;;;;;;1.57;1.00;;;-0.90;99.90;;;;;;5073127;28;20228;-58
2023/02/27 00:15:33;;;;;;;2.67;1.30;;;-0.90;99.90;;;;;;5073075;28;20201;-55
2023/02/27 00:18:00;;;;;;;2.83;0.97;;;-0.90;99.90;;;;;;5073731;28;20219;-57
2023/02/27 00:20:27;;;;;;;2.00;1.10;;;-1.00;99.90;;;;;;5073645;28;20263;-57
2023/02/27 00:22:54;;;;;;;3.67;1.10;;;-1.00;99.90;;;;;;5073545;28;20212;-57
2023/02/27 00:25:22;;;;;;;1.87;1.40;;;-1.00;99.90;;;;;;5072833;28;20266;-57
2023/02/27 00:27:49;;;;;;;1.70;1.20;;;-1.00;99.90;;;;;;5073092;28;20262;-57
2023/02/27 00:30:16;;;;;;;2.30;1.03;;;-0.90;99.90;;;;;;5072832;28;20574;-57
2023/02/27 00:32:43;;;;;;;1.80;1.23;;;-1.00;99.90;;;;;;5073609;28;20235;-57
2023/02/27 00:35:11;;;;;;;1.03;0.93;;;-1.10;99.90;;;;;;5073571;28;20247;-57
2023/02/27 00:37:38;;;;;;;1.90;1.33;;;-1.00;99.90;;;;;;5072411;28;20209;-57
2023/02/27 00:40:07;;;;;;;2.63;1.43;;;-1.00;99.90;;;;;;5072643;28;20250;-60
2023/02/27 00:42:35;;;;;;;4.00;1.10;;;-0.90;99.90;;;;;;5072530;28;20213;-57
2023/02/27 00:45:02;;;;;;;3.73;1.73;;;-1.00;99.90;;;;;;5072756;28;20665;-57
2023/02/27 00:47:29;;;;;;;2.07;1.40;;;-1.00;99.90;;;;;;5072679;28;20650;-57
2023/02/27 00:49:56;;;;;;;2.53;1.50;;;-1.00;99.90;;;;;;5072586;28;20236;-57
2023/02/27 00:52:22;;;;;;;3.17;1.53;;;-1.00;99.90;;;;;;5072865;28;20212;-57
2023/02/27 00:54:49;;;;;;;1.90;1.27;;;-1.00;99.90;;;;;;5072698;28;20193;-57
2023/02/27 00:57:16;;;;;;;3.57;1.70;;;-1.00;99.90;;;;;;5072087;28;20197;-65
2023/02/27 00:59:45;;;;;;;2.57;1.37;;;-1.10;99.90;;;;;;5072619;28;20212;-58
2023/02/27 01:02:12;;;;;;;3.07;1.50;;;-1.10;99.90;;;;;;5072743;28;20616;-58
2023/02/27 01:04:39;;;;;;;2.03;1.40;;;-1.20;99.90;;;;;;5073005;28;20232;-58
2023/02/27 01:07:06;;;;;;;2.13;1.50;;;-1.20;99.90;;;;;;5072299;28;20274;-58
2023/02/27 01:09:32;;;;;;;2.27;1.50;;;-1.20;99.90;;;;;;5072135;28;20205;-58
2023/02/27 01:11:59;;;;;;;2.27;1.50;;;-1.20;99.90;;;;;;5072862;28;20212;-58
2023/02/27 01:14:26;;;;;;;1.63;1.23;;;-1.10;99.90;;;;;;5072869;28;20205;-59
2023/02/27 01:16:54;;;;;;;3.53;1.40;;;-1.10;99.90;;;;;;5073228;28;20208;-56
2023/02/27 01:19:21;;;;;;;1.47;1.30;;;-1.20;99.90;;;;;;5072481;28;20201;-58
2023/02/27 01:21:48;;;;;;;2.70;1.40;;;-1.20;99.90;;;;;;5075156;28;20704;-57
2023/02/27 01:24:14;;;;;;;2.87;1.33;;;-1.10;99.90;;;;;;5076091;28;20657;-58
2023/02/27 01:26:41;;;;;;;2.00;1.40;;;-1.10;99.90;;;;;;5075545;28;20228;-55
2023/02/27 01:29:08;;;;;;;3.77;1.53;;;-1.10;99.90;;;;;;5076014;28;20209;-57
2023/02/27 01:31:35;;;;;;;4.30;1.57;;;-1.20;99.90;;;;;;5075894;28;20232;-58
2023/02/27 01:34:03;;;;;;;2.63;1.67;;;-1.10;99.90;;;;;;5075538;28;20586;-57
2023/02/27 01:36:29;;;;;;;2.73;1.60;;;-1.10;99.90;;;;;;5075108;28;20208;-57
2023/02/27 01:38:56;;;;;;;2.23;1.37;;;-1.10;99.90;;;;;;5075539;28;20217;-58
2023/02/27 01:41:23;;;;;;;2.63;1.60;;;-1.10;99.90;;;;;;5075792;28;20224;-58
2023/02/27 01:43:58;;;;;;;2.27;1.33;;;-1.10;99.90;;;;;;5076521;28;20220;-57
2023/02/27 01:46:26;;;;;;;1.93;1.30;;;-1.10;99.90;;;;;;5075758;28;20225;-57
2023/02/27 01:48:58;;;;;;;1.63;1.10;;;-1.10;99.90;;;;;;5075563;28;20205;-57
2023/02/27 01:51:30;;;;;;;1.70;1.40;;;-1.20;99.90;;;;;;5075678;28;20241;-58
2023/02/27 01:53:57;;;;;;;1.50;1.30;;;-1.20;99.90;;;;;;5076086;28;20208;-59
2023/02/27 01:56:26;;;;;;;3.87;1.80;;;-1.20;99.90;;;;;;5076011;28;20229;-57
2023/02/27 01:58:57;;;;;;;4.20;1.77;;;-1.20;99.90;;;;;;5075438;28;20215;-59
2023/02/27 02:01:24;;;;;;;3.70;1.67;;;-1.10;99.90;;;;;;5075358;28;20225;-58
2023/02/27 02:03:58;;;;;;;3.03;1.53;;;-1.10;99.90;;;;;;5075437;28;20208;-58
2023/02/27 02:06:27;;;;;;;1.80;1.40;;;-1.10;99.90;;;;;;5074929;28;20730;-58
2023/02/27 02:08:55;;;;;;;6.47;1.47;;;-1.10;99.90;;;;;;5075090;28;20205;-58
2023/02/27 02:11:23;;;;;;;2.17;1.13;;;-1.10;99.90;;;;;;5074654;28;20712;-58
2023/02/27 02:13:56;;;;;;;2.17;1.60;;;-1.10;99.90;;;;;;5075035;28;20676;-58
2023/02/27 02:16:38;;;;;;;2.77;1.50;;;-1.10;99.90;;;;;;5075312;28;20211;-57
2023/02/27 02:19:28;;;;;;;1.83;1.50;;;-1.10;99.90;;;;;;5075187;28;20546;-57
2023/02/27 02:22:17;;;;;;;3.27;1.40;;;-1.20;99.90;;;;;;5075549;28;20219;-57
2023/02/27 02:25:17;;;;;;;3.00;1.40;;;-1.20;99.90;;;;;;5073997;28;20551;-58
2023/02/27 02:27:56;;;;;;;1.93;1.47;;;-1.10;99.90;;;;;;5074529;28;20716;-58
2023/02/27 02:30:58;;;;;;;4.83;1.63;;;-1.10;99.90;;;;;;5075161;28;20228;-58
2023/02/27 02:33:49;;;;;;;2.50;1.83;;;-1.20;99.90;;;;;;5074979;28;20201;-57
2023/02/27 02:37:04;;;;;;;3.90;1.70;;;-1.10;99.90;;;;;;5074427;28;20201;-58
2023/02/27 02:40:04;;;;;;;2.27;1.43;;;-1.20;99.90;;;;;;5012612;28;20195;-58
2023/02/27 02:42:36;;;;;;;1.97;1.40;;;-1.10;99.90;;;;;;5074729;28;20702;-58
2023/02/27 02:45:12;;;;;;;2.60;1.60;;;-1.20;99.90;;;;;;5074348;28;20208;-57
2023/02/27 02:47:49;;;;;;;1.53;1.30;;;-1.20;99.90;;;;;;5073928;28;20647;-58
2023/02/27 02:50:24;;;;;;;3.07;1.67;;;-1.20;99.90;;;;;;5074752;28;20244;-58
2023/02/27 02:53:00;;;;;;;3.73;1.63;;;-1.10;99.90;;;;;;5074345;28;20212;-58
2023/02/27 02:55:34;;;;;;;4.57;1.50;;;-1.10;99.90;;;;;;5074297;28;20200;-56
2023/02/27 02:58:06;;;;;;;4.30;1.70;;;-1.20;99.90;;;;;;5074141;28;20201;-57
2023/02/27 03:00:36;;;;;;;3.10;1.50;;;-1.20;99.90;;;;;;5074216;28;20236;-57
2023/02/27 03:03:10;;;;;;;1.90;1.70;;;-1.20;99.90;;;;;;5074105;28;20231;-56
2023/02/27 03:05:41;;;;;;;2.83;1.60;;;-1.20;99.90;;;;;;5073905;28;20212;-57
2023/02/27 03:08:11;;;;;;;2.67;1.80;;;-1.20;99.90;;;;;;5074463;28;20228;-58
2023/02/27 03:10:44;;;;;;;3.67;1.77;;;-1.10;99.90;;;;;;5074231;28;20217;-57
2023/02/27 03:13:14;;;;;;;2.03;1.40;;;-1.20;99.90;;;;;;5074102;28;20208;-58
2023/02/27 03:15:46;;;;;;;1.97;1.63;;;-1.20;99.90;;;;;;5074073;28;20211;-58
2023/02/27 03:18:19;;;;;;;3.53;1.67;;;-1.20;99.90;;;;;;5074115;28;20618;-58
2023/02/27 03:20:51;;;;;;;2.60;1.70;;;-1.20;99.90;;;;;;5073823;28;20220;-57
2023/02/27 03:23:23;;;;;;;2.43;1.80;;;-1.20;99.90;;;;;;5074024;28;20244;-57
2023/02/27 03:25:53;;;;;;;2.13;1.73;;;-1.30;99.90;;;;;;5073959;28;20215;-57
2023/02/27 03:28:25;;;;;;;4.87;2.10;;;-1.30;99.90;;;;;;5074191;28;20228;-57
2023/02/27 03:30:55;;;;;;;3.40;1.67;;;-1.30;99.90;;;;;;5073920;28;20229;-57
2023/02/27 03:33:26;;;;;;;2.40;1.70;;;-1.30;99.90;;;;;;5073759;28;20220;-58
2023/02/27 03:35:59;;;;;;;3.87;1.70;;;-1.30;99.90;;;;;;5073659;28;20223;-57
2023/02/27 03:38:34;;;;;;;3.23;1.70;;;-1.30;99.90;;;;;;5073854;28;20213;-57
2023/02/27 03:41:11;;;;;;;3.93;1.80;;;-1.30;99.90;;;;;;5073472;28;20235;-57
2023/02/27 03:43:46;;;;;;;3.47;2.07;;;-1.40;99.90;;;;;;5073862;28;20262;-57
2023/02/27 03:46:15;;;;;;;2.40;1.90;;;-1.40;99.90;;;;;;5075361;28;20197;-57
2023/02/27 03:48:43;;;;;;;2.67;1.47;;;-1.40;99.90;;;;;;5076504;28;20227;-58
2023/02/27 03:51:11;;;;;;;3.77;1.90;;;-1.30;99.90;;;;;;5076408;28;20611;-58
2023/02/27 03:53:43;;;;;;;4.73;1.77;;;-1.30;99.90;;;;;;5076327;28;20212;-58
2023/02/27 03:56:13;;;;;;;2.97;2.00;;;-1.30;99.90;;;;;;5075451;28;20259;-58
2023/02/27 03:58:40;;;;;;;2.83;2.00;;;-1.30;99.90;;;;;;5075005;28;20232;-58
2023/02/27 04:01:08;;;;;;;3.10;1.70;;;-1.40;99.90;;;;;;5075065;28;20225;-57
2023/02/27 04:03:39;;;;;;;3.80;2.17;;;-1.40;99.90;;;;;;5074459;28;20205;-57
2023/02/27 04:08:56;;;;;;;3.07;1.80;;;-1.40;99.90;;;;;;5074267;28;20219;-57
2023/02/27 04:11:37;;;;;;;2.17;1.63;;;-1.50;99.90;;;;;;5074834;28;20234;-57
2023/02/27 04:14:31;;;;;;;2.13;1.93;;;-1.40;99.90;;;;;;5074975;28;20211;-57
2023/02/27 04:17:23;;;;;;;3.40;1.97;;;-1.40;99.90;;;;;;5074266;28;20208;-57
2023/02/27 04:20:29;;;;;;;3.20;1.70;;;-1.40;99.90;;;;;;5068648;28;20231;-57
2023/02/27 04:23:02;;;;;;;3.27;2.07;;;-1.50;99.90;;;;;;5073138;28;20204;-57
2023/02/27 04:25:41;;;;;;;3.40;1.80;;;-1.50;99.90;;;;;;5073668;28;20216;-58
2023/02/27 04:28:16;;;;;;;3.00;1.87;;;-1.50;99.90;;;;;;5073063;28;20671;-58
2023/02/27 04:30:52;;;;;;;3.60;2.00;;;-1.60;99.90;;;;;;5073167;28;20646;-57
2023/02/27 04:33:29;;;;;;;2.83;1.90;;;-1.60;99.90;;;;;;5073513;28;20219;-57
2023/02/27 04:36:02;;;;;;;3.70;1.80;;;-1.60;99.90;;;;;;5072918;28;20223;-58
2023/02/27 04:38:34;;;;;;;3.10;2.10;;;-1.60;99.90;;;;;;5073054;28;20212;-58
2023/02/27 04:41:07;;;;;;;2.50;1.70;;;-1.60;99.90;;;;;;5073259;28;20723;-58
2023/02/27 04:43:39;;;;;;;3.07;1.83;;;-1.50;99.90;;;;;;5073154;28;20590;-57
2023/02/27 04:46:09;;;;;;;3.10;1.90;;;-1.60;99.90;;;;;;5072899;28;20212;-58
2023/02/27 04:48:41;;;;;;;4.83;2.00;;;-1.60;99.90;;;;;;5073329;28;20270;-57
2023/02/27 04:51:13;;;;;;;2.90;2.00;;;-1.60;99.90;;;;;;5072872;28;20720;-59
2023/02/27 04:53:46;;;;;;;3.43;2.07;;;-1.60;99.90;;;;;;5073401;28;20216;-59
2023/02/27 04:56:19;;;;;;;2.87;1.60;;;-1.50;99.90;;;;;;5075169;28;20209;-59
2023/02/27 04:58:50;;;;;;;5.30;1.80;;;-1.60;99.90;;;;;;5076711;28;20709;-58
2023/02/27 05:01:22;;;;;;;3.23;2.07;;;-1.50;99.90;;;;;;5076686;28;20252;-56
2023/02/27 05:03:52;;;;;;;4.00;2.20;;;-1.40;99.90;;;;;;5076585;28;20607;-59
2023/02/27 05:06:23;;;;;;;2.40;1.87;;;-1.50;99.90;;;;;;5076630;28;20193;-58
2023/02/27 05:08:57;;;;;;;2.43;1.90;;;-1.50;99.90;;;;;;5076303;28;20723;-59
2023/02/27 05:11:28;;;;;;;3.17;1.73;;;-1.50;99.90;;;;;;5075966;28;20264;-56
2023/02/27 05:14:01;;;;;;;2.97;2.00;;;-1.40;99.90;;;;;;5076854;28;20227;-59
2023/02/27 05:16:33;;;;;;;5.60;2.47;;;-1.40;99.90;;;;;;5076277;28;20205;-56
2023/02/27 05:19:01;;;;;;;2.53;2.10;;;-1.30;99.90;;;;;;5077020;28;20338;-57
2023/02/27 05:21:33;;;;;;;4.07;2.10;;;-1.30;99.90;;;;;;5076846;28;20225;-56
2023/02/27 05:24:11;;;;;;;3.77;2.33;;;-1.30;99.90;;;;;;5076546;28;20205;-57
2023/02/27 05:26:59;;;;;;;3.83;2.03;;;-1.20;99.90;;;;;;5076141;28;20213;-57
2023/02/27 05:29:33;;;;;;;3.37;2.00;;;-1.20;99.90;;;;;;5076843;28;20208;-57
2023/02/27 05:32:07;;;;;;;4.10;2.27;;;-1.20;99.90;;;;;;5076270;28;20215;-59
2023/02/27 05:34:37;;;;;;;5.07;1.83;;;-1.20;99.90;;;;;;5076076;28;20208;-57
2023/02/27 05:37:10;;;;;;;3.63;2.00;;;-1.40;99.90;;;;;;5075647;28;20205;-57
2023/02/27 05:39:40;;;;;;;4.27;1.93;;;-1.30;99.90;;;;;;5075570;28;20216;-58
2023/02/27 05:42:11;;;;;;;5.07;2.40;;;-1.40;99.90;;;;;;5075795;28;20220;-58
2023/02/27 05:44:44;;;;;;;2.17;1.90;;;-1.40;99.90;;;;;;5075825;28;20208;-58
2023/02/27 05:47:16;;;;;;;4.37;2.50;;;-1.40;99.90;;;;;;5076114;28;20229;-58
2023/02/27 05:49:47;;;;;;;3.80;2.57;;;-1.40;99.90;;;;;;5076003;28;20580;-58
2023/02/27 05:52:18;;;;;;;4.20;2.13;;;-1.40;99.90;;;;;;5076992;28;20209;-58
2023/02/27 05:54:50;;;;;;;4.53;2.40;;;-1.40;99.90;;;;;;5075762;28;20215;-57
2023/02/27 05:57:22;;;;;;;4.13;2.43;;;-1.40;99.90;;;;;;5075039;28;20204;-57
2023/02/27 05:59:57;;;;;;;4.37;2.30;;;-1.40;99.90;;;;;;5075928;28;20224;-57
2023/02/27 06:02:24;;;;;;;3.87;2.47;;;-1.40;99.90;;;;;;5075675;28;20212;-57
2023/02/27 06:04:51;;;;;;;3.77;2.40;;;-1.40;99.90;;;;;;5075323;28;20206;-57
2023/02/27 06:07:18;;;;;;;3.77;2.50;;;-1.50;99.90;;;;;;5074199;28;20232;-57
2023/02/27 06:09:46;;;;;;;4.23;2.27;;;-1.40;99.90;;;;;;5074774;28;20256;-58
2023/02/27 06:12:12;;;;;;;3.03;2.10;;;-1.40;99.90;;;;;;5074792;28;20305;-57
2023/02/27 06:14:39;;;;;;;3.57;2.20;;;-1.40;99.90;;;;;;5075214;28;20215;-60
2023/02/27 06:17:07;;;;;;;4.50;2.40;;;-1.40;99.90;;;;;;5074863;28;20209;-57
2023/02/27 06:19:34;;;;;;;5.47;3.00;;;-1.50;99.90;;;;;;5076284;28;20205;-58
2023/02/27 06:22:01;;;;;;;3.60;2.47;;;-1.50;99.90;;;;;;5076625;28;20201;-59
2023/02/27 06:24:27;;;;;;;2.20;1.87;;;-1.50;99.90;;;;;;5076203;28;20212;-58
2023/02/27 06:26:54;;;;;;;3.37;2.53;;;-1.40;99.90;;;;;;5075465;28;20205;-60
2023/02/27 06:29:21;;;;;;;3.83;2.40;;;-1.40;99.90;;;;;;5074509;28;20221;-58
2023/02/27 06:31:47;;;;;;;3.37;2.70;;;-1.40;99.90;;;;;;5074723;28;20228;-58
2023/02/27 06:34:16;;;;;;;6.37;2.53;;;-1.40;99.90;;;;;;5074475;28;20681;-59
2023/02/27 06:36:43;;;;;;;3.33;2.20;;;-1.20;99.90;;;;;;5074282;28;20212;-59
2023/02/27 06:39:09;;;;;;;5.53;2.60;;;-1.30;99.90;;;;;;5074300;28;20201;-58
2023/02/27 06:41:36;;;;;;;4.40;2.40;;;-1.40;99.90;;;;;;5074962;28;20228;-57
2023/02/27 06:44:03;;;;;;;3.97;2.20;;;-1.40;99.90;;;;;;5074697;28;20201;-57
2023/02/27 06:46:29;;;;;;;3.77;2.27;;;-1.40;99.90;;;;;;5074777;28;20219;-57
2023/02/27 06:48:56;;;;;;;3.97;2.80;;;-1.30;99.90;;;;;;5074981;28;20260;-58
2023/02/27 06:51:24;;;;;;;5.00;3.17;;;-1.30;99.90;;;;;;5074282;28;20240;-59
2023/02/27 06:53:51;;;;;;;8.03;2.63;;;-1.20;99.90;;;;;;5074778;28;20552;-58
2023/02/27 06:56:18;;;;;;;4.80;2.70;;;-1.00;99.90;;;;;;5074892;28;20205;-58
2023/02/27 06:58:44;;;;;;;4.40;2.00;;;-0.30;99.90;;;;;;5074985;28;20201;-59
2023/02/27 07:01:12;;;;;;;3.87;2.10;;;0.70;99.90;;;;;;5075634;28;20228;-58
2023/02/27 07:03:38;;;;;;;2.60;2.00;;;1.60;99.90;;;;;;5074634;28;20215;-56
2023/02/27 07:06:06;;;;;;;3.80;2.10;;;2.10;99.90;;;;;;5074269;28;20480;-58
2023/02/27 07:08:34;;;;;;;6.57;2.10;;;2.10;99.90;;;;;;5075097;28;20614;-58
2023/02/27 07:11:01;;;;;;;2.80;1.83;;;1.90;99.90;;;;;;5074592;28;20225;-57
2023/02/27 07:13:28;;;;;;;3.17;2.10;;;1.60;99.90;;;;;;5074282;28;20208;-58
2023/02/27 07:15:54;;;;;;;3.00;1.77;;;1.50;99.90;;;;;;5074021;28;20589;-58
2023/02/27 07:18:21;;;;;;;3.30;1.90;;;1.90;99.90;;;;;;5072953;28;20205;-57
2023/02/27 07:20:50;;;;;;;3.17;1.77;;;2.60;99.90;;;;;;5073425;28;20806;-57
2023/02/27 07:23:16;;;;;;;4.30;2.10;;;3.30;99.90;;;;;;5073960;28;20208;-58
2023/02/27 07:25:46;;;;;;;4.10;2.07;;;4.00;99.90;;;;;;5074370;28;20201;-59
2023/02/27 07:28:13;;;;;;;3.13;2.00;;;4.60;99.90;;;;;;5073749;28;20221;-58
2023/02/27 07:30:40;;;;;;;3.30;1.90;;;5.00;99.90;;;;;;5073791;28;20236;-59
2023/02/27 07:33:07;;;;;;;4.23;1.83;;;5.30;99.90;;;;;;5073509;28;20266;-58
2023/02/27 07:35:33;;;;;;;3.03;2.07;;;5.60;99.90;;;;;;5073750;28;20201;-58
2023/02/27 07:38:00;;;;;;;3.27;1.80;;;5.60;99.90;;;;;;5073471;28;20549;-58
2023/02/27 07:40:27;;;;;;;2.90;1.83;;;5.60;99.90;;;;;;5073819;28;20244;-58
2023/02/27 07:42:55;;;;;;;4.10;1.87;;;5.20;99.90;;;;;;5074197;28;20211;-58
2023/02/27 07:45:22;;;;;;;3.50;2.10;;;4.40;99.90;;;;;;5074667;28;20209;-58
2023/02/27 07:47:49;;;;;;;3.90;2.07;;;3.50;99.90;;;;;;5073891;28;20235;-57
2023/02/27 07:50:16;;;;;;;17.77;2.40;;;2.50;99.90;;;;;;5074047;28;20750;-58
2023/02/27 07:52:44;;;;;;;4.50;2.30;;;1.80;99.90;;;;;;5073717;28;20201;-58
2023/02/27 07:55:13;;;;;;;4.10;2.10;;;1.20;99.90;;;;;;5074071;28;20205;-57
2023/02/27 07:57:39;;;;;;;3.83;2.10;;;0.80;99.90;;;;;;5073933;28;20661;-58
2023/02/27 08:00:09;;;;;;;4.67;2.17;;;0.50;99.90;;;;;;5074004;28;20724;-58
2023/02/27 08:02:36;;;;;;;5.10;2.27;;;0.40;99.90;;;;;;5074801;28;20205;-58
2023/02/27 08:05:03;;;;;;;6.33;2.17;;;0.30;99.90;;;;;;5074087;28;20232;-58
2023/02/27 08:07:29;;;;;;;5.53;2.13;;;0.30;99.90;;;;;;5073050;28;20212;-58
2023/02/27 08:09:56;;;;;;;4.33;2.20;;;0.40;99.90;;;;;;5073436;28;20746;-58
2023/02/27 08:12:23;;;;;;;3.43;2.10;;;0.40;99.90;;;;;;5073890;28;20201;-58
2023/02/27 08:14:50;;;;;;;2.53;2.20;;;0.50;99.90;;;;;;5073948;28;20231;-58
2023/02/27 08:17:18;;;;;;;3.43;2.40;;;0.50;99.90;;;;;;5073565;28;20205;-59
2023/02/27 08:19:45;;;;;;;3.03;2.10;;;0.60;99.90;;;;;;5073675;28;20673;-58
2023/02/27 08:22:12;;;;;;;3.63;2.40;;;0.60;99.90;;;;;;5074634;28;20215;-58
2023/02/27 08:24:39;;;;;;;4.87;2.27;;;0.70;99.90;;;;;;5073226;28;20300;-59
2023/02/27 08:27:07;;;;;;;2.40;1.80;;;0.70;99.90;;;;;;5073055;28;20294;-58
2023/02/27 08:29:34;;;;;;;3.50;2.20;;;0.80;99.90;;;;;;5075179;28;20240;-58
2023/02/27 08:32:01;;;;;;;5.07;2.20;;;0.80;99.90;;;;;;5077970;28;20598;-59
2023/02/27 08:34:30;;;;;;;3.97;2.60;;;0.90;99.90;;;;;;5077560;28;20296;-59
2023/02/27 08:36:56;;;;;;;5.13;1.90;;;1.00;99.90;;;;;;5077719;28;20236;-58
2023/02/27 08:39:24;;;;;;;3.43;1.90;;;1.10;99.90;;;;;;5077910;28;20588;-59
2023/02/27 08:41:57;;;;;;;2.67;2.00;;;1.20;99.90;;;;;;5077140;28;20303;-62
2023/02/27 08:44:24;;;;;;;4.43;2.20;;;1.20;99.90;;;;;;5076717;28;20205;-55
2023/02/27 08:46:51;;;;;;;3.97;2.17;;;1.40;99.90;;;;;;5075323;28;20228;-54
2023/02/27 08:49:19;;;;;;;2.33;1.93;;;1.60;99.90;;;;;;5075513;28;20235;-55
2023/02/27 08:51:47;;;;;;;4.33;2.10;;;1.70;99.90;;;;;;5075941;28;20264;-55
2023/02/27 08:54:14;;;;;;;4.47;1.93;;;1.70;99.90;;;;;;5075469;28;20232;-56
2023/02/27 08:56:40;;;;;;;3.30;1.90;;;1.70;99.90;;;;;;5075079;28;20200;-56
2023/02/27 08:59:07;;;;;;;3.73;2.10;;;1.80;99.90;;;;;;5075668;28;20212;-56
2023/02/27 09:01:34;;;;;;;2.17;1.90;;;1.80;99.90;;;;;;5075466;28;20235;-54
2023/02/27 09:04:02;;;;;;;2.63;2.10;;;1.90;99.90;;;;;;5075363;28;20209;-54
2023/02/27 09:06:28;;;;;;;1.83;1.50;;;1.90;99.90;;;;;;5075125;28;20248;-54
2023/02/27 09:08:57;;;;;;;3.20;2.10;;;1.90;99.90;;;;;;5075077;28;20225;-55
2023/02/27 09:11:24;;;;;;;3.37;2.20;;;2.00;99.90;;;;;;5075280;28;20229;-54
2023/02/27 09:13:51;;;;;;;4.47;2.00;;;2.10;99.90;;;;;;5075361;28;20205;-55
2023/02/27 09:16:19;;;;;;;5.10;1.77;;;2.10;99.90;;;;;;5075271;28;20205;-55
2023/02/27 09:18:46;;;;;;;3.10;2.07;;;2.10;99.90;;;;;;5075052;28;20752;-55
2023/02/27 09:21:13;;;;;;;2.63;1.73;;;2.10;99.90;;;;;;5075071;28;20624;-55
2023/02/27 09:23:40;;;;;;;3.97;1.90;;;2.20;99.90;;;;;;5074866;28;20668;-55
2023/02/27 09:26:09;;;;;;;4.60;1.77;;;2.30;99.90;;;;;;5074942;28;20205;-54
2023/02/27 09:28:38;;;;;;;3.00;1.93;;;2.30;99.90;;;;;;5074837;28;20275;-62
2023/02/27 09:31:07;;;;;;;3.17;1.70;;;2.30;99.90;;;;;;5063002;28;20229;-55
2023/02/27 09:33:35;;;;;;;2.90;1.97;;;2.40;99.90;;;;;;5073496;28;20196;-55
2023/02/27 09:36:04;;;;;;;2.70;1.70;;;2.50;99.90;;;;;;5073234;28;20204;-56
2023/02/27 09:38:31;;;;;;;3.40;2.10;;;2.60;99.90;;;;;;5073390;28;20258;-56
2023/02/27 09:40:58;;;;;;;3.90;2.10;;;2.70;99.90;;;;;;5073129;28;20233;-56
2023/02/27 09:43:33;;;;;;;4.10;2.07;;;2.80;99.90;;;;;;5073677;28;20295;-56
2023/02/27 09:46:02;;;;;;;2.57;2.00;;;2.90;99.90;;;;;;5072872;28;20211;-59
2023/02/27 09:48:32;;;;;;;3.60;1.87;;;3.10;99.90;;;;;;5073013;28;20224;-58
2023/02/27 09:51:00;;;;;;;2.50;1.70;;;3.30;99.90;;;;;;5073136;28;20244;-59
2023/02/27 09:53:30;;;;;;;3.47;1.60;;;3.50;99.90;;;;;;5073328;28;20573;-59
2023/02/27 09:56:05;;;;;;;2.50;1.60;;;3.50;99.90;;;;;;5073329;28;20274;-58
2023/02/27 09:58:42;;;;;;;4.13;1.93;;;3.70;99.90;;;;;;5072900;28;20221;-61
2023/02/27 10:01:16;;;;;;;2.23;1.73;;;3.80;99.90;;;;;;5073513;28;20232;-64
2023/02/27 10:04:19;;;;;;;1.97;1.40;;;3.80;99.90;;;;;;5073602;28;20213;-57
2023/02/27 10:06:48;;;;;;;3.53;1.53;;;3.90;99.90;;;;;;5072783;28;20215;-56
2023/02/27 10:09:28;;;;;;;3.60;1.70;;;4.00;99.90;;;;;;5072997;28;20232;-57
2023/02/27 10:12:08;;;;;;;2.20;1.40;;;4.00;99.90;;;;;;5072928;28;20212;-59
2023/02/27 10:14:43;;;;;;;2.07;1.63;;;4.10;99.90;;;;;;5073163;28;20205;-56
2023/02/27 10:17:18;;;;;;;3.97;1.63;;;4.20;99.90;;;;;;5072873;28;20208;-57
2023/02/27 10:19:47;;;;;;;2.80;1.70;;;4.20;99.90;;;;;;5073695;28;20200;-60
2023/02/27 10:22:19;;;;;;;2.40;1.60;;;4.20;99.90;;;;;;5087047;28;20695;-61
2023/02/27 10:24:52;;;;;;;2.27;1.37;;;4.30;99.90;;;;;;5084867;28;20631;-59
2023/02/27 10:27:21;;;;;;;3.63;1.43;;;4.30;99.90;;;;;;5072251;28;20692;-58
2023/02/27 10:29:49;;;;;;;2.13;1.50;;;4.50;99.90;;;;;;5072303;28;20451;-57
2023/02/27 10:32:19;;;;;;;10.03;1.90;;;4.70;99.90;;;;;;5072616;28;20208;-59
2023/02/27 10:34:50;;;;;;;2.53;1.43;;;5.00;99.90;;;;;;5072975;28;20211;-59
2023/02/27 10:37:20;;;;;;;3.57;1.73;;;5.20;99.90;;;;;;5071895;28;20250;-62
2023/02/27 10:39:51;;;;;;;2.97;1.70;;;5.30;99.90;;;;;;5070586;28;20252;-58
2023/02/27 10:42:19;;;;;;;2.27;1.83;;;5.40;99.90;;;;;;5073617;28;20634;-55
2023/02/27 10:44:46;;;;;;;3.13;1.40;;;5.40;99.90;;;;;;5073267;28;20207;-55
2023/02/27 10:47:16;;;;;;;1.83;1.33;;;5.50;99.50;;;;;;5073478;28;20216;-56
2023/02/27 10:49:43;;;;;;;1.93;1.30;;;5.40;99.90;;;;;;5073596;28;20228;-55
2023/02/27 10:52:12;;;;;;;1.83;1.40;;;5.30;99.90;;;;;;5073578;28;20239;-55
2023/02/27 10:54:40;;;;;;;5.50;1.90;;;5.30;99.90;;;;;;5073608;28;20201;-55
2023/02/27 10:57:21;;;;;;;2.20;1.50;;;5.40;99.90;;;;;;5073076;28;20209;-57
2023/02/27 10:59:53;;;;;;;2.43;1.80;;;5.60;98.90;;;;;;5073327;28;20232;-54
2023/02/27 11:02:23;;;;;;;1.77;1.30;;;5.80;98.60;;;;;;5073148;28;20703;-57
2023/02/27 11:04:52;;;;;;;3.77;1.60;;;5.80;97.20;;;;;;5073265;28;20208;-54
2023/02/27 11:07:29;;;;;;;2.40;1.40;;;5.80;97.00;;;;;;5072951;28;20295;-55
2023/02/27 11:10:02;;;;;;;4.37;2.27;;;5.90;96.80;;;;;;5072732;28;20236;-55
2023/02/27 11:12:30;;;;;;;2.80;1.60;;;6.10;97.80;;;;;;5072991;28;20208;-55
2023/02/27 11:14:59;;;;;;;3.60;1.30;;;6.20;96.90;;;;;;5073053;28;20205;-55
2023/02/27 11:17:31;;;;;;;3.97;1.47;;;6.30;97.70;;;;;;5072813;28;20205;-55
2023/02/27 11:19:58;;;;;;;3.90;1.40;;;6.20;97.30;;;;;;5073041;28;20709;-55
2023/02/27 11:22:27;;;;;;;2.67;1.57;;;6.10;96.90;;;;;;5073353;28;20576;-55
2023/02/27 11:25:16;;;;;;;3.30;1.50;;;6.10;97.40;;;;;;5073110;28;20259;-55
2023/02/27 11:27:45;;;;;;;3.80;1.80;;;6.20;97.00;;;;;;5072543;28;20205;-55
2023/02/27 11:30:23;;;;;;;3.03;1.37;;;6.30;94.70;;;;;;5072962;28;20265;-55
2023/02/27 11:32:53;;;;;;;2.73;1.40;;;6.30;93.70;;;;;;5073327;28;20612;-55
2023/02/27 11:35:23;;;;;;;2.67;1.17;;;6.30;93.30;;;;;;5073361;28;20657;-55
2023/02/27 11:37:52;;;;;;;3.73;1.20;;;6.30;92.50;;;;;;5073030;28;20588;-55
2023/02/27 11:40:22;;;;;;;3.90;1.40;;;6.30;91.90;;;;;;5073231;28;20293;-57
2023/02/27 11:42:51;;;;;;;1.97;1.23;;;6.20;91.80;;;;;;5073462;28;20223;-56
2023/02/27 11:45:30;;;;;;;2.80;1.73;;;6.10;91.70;;;;;;5073239;28;20215;-55
2023/02/27 11:48:01;;;;;;;2.30;1.80;;;6.40;92.90;;;;;;5073122;28;20205;-54
2023/02/27 11:50:56;;;;;;;1.90;1.53;;;6.70;93.20;;;;;;5072818;28;20616;-55
2023/02/27 11:53:37;;;;;;;7.37;1.60;;;7.20;93.70;;;;;;5072927;28;20717;-56
2023/02/27 11:56:08;;;;;;;1.53;1.13;;;7.70;93.50;;;;;;5073189;28;20209;-56
2023/02/27 11:58:41;;;;;;;3.27;1.50;;;7.60;93.80;;;;;;5069211;28;20209;-54
2023/02/27 12:01:18;;;;;;;1.70;1.17;;;7.30;94.20;;;;;;5072300;28;20221;-57
2023/02/27 12:03:53;;;;;;;4.10;1.70;;;7.30;94.80;;;;;;5071508;28;20699;-58
2023/02/27 12:06:23;;;;;;;2.30;1.40;;;7.30;94.30;;;;;;5072039;28;20211;-57
2023/02/27 12:08:54;;;;;;;2.70;1.40;;;7.30;93.80;;;;;;5071193;28;20209;-58
2023/02/27 12:11:27;;;;;;;2.77;1.50;;;7.10;94.50;;;;;;5071757;28;20221;-60
2023/02/27 12:13:59;;;;;;;1.87;1.30;;;6.80;94.90;;;;;;5072538;28;20633;-55
2023/02/27 12:16:31;;;;;;;1.80;1.33;;;6.50;95.00;;;;;;5072065;28;20291;-54
2023/02/27 12:19:05;;;;;;;3.30;1.57;;;6.30;95.20;;;;;;5072105;28;20216;-55
2023/02/27 12:21:37;;;;;;;2.40;1.47;;;6.20;95.20;;;;;;5071705;28;20224;-55
2023/02/27 12:24:14;;;;;;;3.67;2.00;;;6.10;95.30;;;;;;5072064;28;20208;-56
2023/02/27 12:26:43;;;;;;;3.23;1.70;;;6.20;95.20;;;;;;5071635;28;20238;-56
2023/02/27 12:29:19;;;;;;;1.73;1.20;;;6.30;94.90;;;;;;5071883;28;20665;-55
2023/02/27 12:31:51;;;;;;;2.10;1.30;;;6.50;94.80;;;;;;5072131;28;20263;-56
2023/02/27 12:34:28;;;;;;;2.80;1.60;;;6.70;95.10;;;;;;5072137;28;20266;-55
2023/02/27 12:37:05;;;;;;;2.47;1.60;;;6.80;95.00;;;;;;5071629;28;20208;-55
2023/02/27 12:39:33;;;;;;;2.43;1.40;;;6.70;95.00;;;;;;5071840;28;20205;-56
2023/02/27 12:42:24;;;;;;;3.47;1.40;;;6.50;95.10;;;;;;5071920;28;20673;-55
2023/02/27 12:45:05;;;;;;;2.37;1.70;;;6.20;94.80;;;;;;5071862;28;20213;-55
2023/02/27 12:47:39;;;;;;;3.63;1.57;;;5.80;95.90;;;;;;5071244;28;20383;-56
2023/02/27 12:50:12;;;;;;;1.97;1.30;;;5.50;96.30;;;;;;5071439;28;20709;-56
2023/02/27 12:52:50;;;;;;;1.43;1.17;;;5.30;96.00;;;;;;5072021;28;20219;-56
2023/02/27 12:55:21;;;;;;;5.50;1.63;;;5.00;96.40;;;;;;5071736;28;20223;-55
2023/02/27 12:58:05;;;;;;;2.67;1.70;;;4.90;96.90;;;;;;5072120;28;20209;-54
2023/02/27 13:00:41;;;;;;;5.07;1.77;;;4.80;97.10;;;;;;5072096;28;20594;-57
2023/02/27 13:03:14;;;;;;;2.30;1.63;;;4.90;97.20;;;;;;5072569;28;20292;-59
2023/02/27 13:05:53;;;;;;;2.60;1.43;;;4.90;97.10;;;;;;5072238;28;20664;-56
2023/02/27 13:09:00;;;;;;;2.20;1.53;;;4.90;96.40;;;;;;5071996;28;20627;-57
2023/02/27 13:11:39;;;;;;;6.77;1.90;;;4.70;96.30;;;;;;5010400;28;20242;-56
2023/02/27 13:14:13;;;;;;;3.03;1.43;;;4.70;96.50;;;;;;5062671;28;20208;-56